createdAt,value
2023-04-09T00:00:29.504Z,1017.39
2023-04-09T00:01:29.457Z,1017.39
2023-04-09T00:02:29.551Z,1017.41
2023-04-09T00:03:29.493Z,1017.37
2023-04-09T00:04:29.466Z,1017.39
2023-04-09T00:05:29.415Z,1017.35
2023-04-09T00:06:29.414Z,1017.34
2023-04-09T00:07:29.420Z,1017.36
2023-04-09T00:08:29.379Z,1017.38
2023-04-09T00:09:29.380Z,1017.34
2023-04-09T00:10:29.352Z,1017.35
2023-04-09T00:11:29.344Z,1017.35
2023-04-09T00:12:29.321Z,1017.38
2023-04-09T00:13:38.377Z,1017.34
2023-04-09T00:14:30.316Z,1017.33
2023-04-09T00:15:31.541Z,1017.32
2023-04-09T00:16:29.316Z,1017.30
2023-04-09T00:17:29.293Z,1017.31
2023-04-09T00:18:29.278Z,1017.30
2023-04-09T00:19:29.254Z,1017.27
2023-04-09T00:20:29.259Z,1017.27
2023-04-09T00:21:29.260Z,1017.29
2023-04-09T00:22:29.257Z,1017.34
2023-04-09T00:23:29.221Z,1017.23
2023-04-09T00:24:29.240Z,1017.30
2023-04-09T00:25:29.205Z,1017.28
2023-04-09T00:26:29.196Z,1017.27
2023-04-09T00:27:29.171Z,1017.27
2023-04-09T00:28:29.175Z,1017.26
2023-04-09T00:29:29.136Z,1017.27
2023-04-09T00:30:29.140Z,1017.26
2023-04-09T00:31:29.205Z,1017.25
2023-04-09T00:32:29.167Z,1017.26
2023-04-09T00:33:29.100Z,1017.32
2023-04-09T00:34:29.109Z,1017.32
2023-04-09T00:35:29.072Z,1017.29
2023-04-09T00:36:29.088Z,1017.25
2023-04-09T00:37:29.048Z,1017.25
2023-04-09T00:38:29.060Z,1017.25
2023-04-09T00:39:29.026Z,1017.21
2023-04-09T00:40:29.022Z,1017.27
2023-04-09T00:41:29.021Z,1017.27
2023-04-09T00:42:29.021Z,1017.23
2023-04-09T00:43:29.008Z,1017.25
2023-04-09T00:44:28.992Z,1017.24
2023-04-09T00:45:28.983Z,1017.26
2023-04-09T00:46:28.991Z,1017.22
2023-04-09T00:47:28.972Z,1017.25
2023-04-09T00:48:28.964Z,1017.23
2023-04-09T00:49:28.920Z,1017.21
2023-04-09T00:50:28.924Z,1017.21
2023-04-09T00:51:28.905Z,1017.22
2023-04-09T00:52:28.892Z,1017.22
2023-04-09T00:53:28.917Z,1017.21
2023-04-09T00:54:28.882Z,1017.25
2023-04-09T00:55:28.853Z,1017.24
2023-04-09T00:56:28.880Z,1017.21
2023-04-09T00:57:28.870Z,1017.22
2023-04-09T00:58:28.829Z,1017.22
2023-04-09T00:59:28.820Z,1017.24
2023-04-09T01:00:28.805Z,1017.26
2023-04-09T01:01:28.860Z,1017.25
2023-04-09T01:02:28.983Z,1017.25
2023-04-09T01:03:28.905Z,1017.20
2023-04-09T01:04:28.789Z,1017.23
2023-04-09T01:05:28.755Z,1017.19
2023-04-09T01:06:28.781Z,1017.25
2023-04-09T01:07:28.715Z,1017.24
2023-04-09T01:08:28.722Z,1017.20
2023-04-09T01:09:28.704Z,1017.22
2023-04-09T01:10:28.694Z,1017.23
2023-04-09T01:11:28.680Z,1017.16
2023-04-09T01:12:28.688Z,1017.19
2023-04-09T01:13:28.664Z,1017.20
2023-04-09T01:14:28.658Z,1017.21
2023-04-09T01:15:28.625Z,1017.15
2023-04-09T01:16:28.635Z,1017.17
2023-04-09T01:17:28.696Z,1017.15
2023-04-09T01:18:28.634Z,1017.14
2023-04-09T01:19:28.579Z,1017.15
2023-04-09T01:20:28.639Z,1017.17
2023-04-09T01:21:28.555Z,1017.11
2023-04-09T01:22:28.546Z,1017.09
2023-04-09T01:23:28.609Z,1017.10
2023-04-09T01:24:28.534Z,1017.08
2023-04-09T01:25:28.519Z,1017.14
2023-04-09T01:26:28.515Z,1017.12
2023-04-09T01:27:28.483Z,1017.10
2023-04-09T01:28:28.479Z,1017.13
2023-04-09T01:29:28.497Z,1017.10
2023-04-09T01:30:28.483Z,1017.07
2023-04-09T01:31:28.450Z,1017.07
2023-04-09T01:32:28.461Z,1017.11
2023-04-09T01:33:28.435Z,1017.10
2023-04-09T01:34:28.429Z,1017.16
2023-04-09T01:35:28.405Z,1017.16
2023-04-09T01:36:28.436Z,1017.15
2023-04-09T01:37:28.411Z,1017.13
2023-04-09T01:38:28.376Z,1017.11
2023-04-09T01:39:28.372Z,1017.09
2023-04-09T01:40:28.367Z,1017.11
2023-04-09T01:41:28.350Z,1017.14
2023-04-09T01:42:28.334Z,1017.14
2023-04-09T01:43:28.320Z,1017.18
2023-04-09T01:44:28.344Z,1017.20
2023-04-09T01:45:28.288Z,1017.14
2023-04-09T01:46:28.361Z,1017.15
2023-04-09T01:47:28.405Z,1017.18
2023-04-09T01:48:28.287Z,1017.14
2023-04-09T01:49:28.258Z,1017.12
2023-04-09T01:50:28.242Z,1017.14
2023-04-09T01:51:28.249Z,1017.09
2023-04-09T01:52:28.252Z,1017.09
2023-04-09T01:53:28.206Z,1017.12
2023-04-09T01:54:28.203Z,1017.14
2023-04-09T01:55:28.207Z,1017.09
2023-04-09T01:56:28.181Z,1017.11
2023-04-09T01:57:28.166Z,1017.08
2023-04-09T01:58:28.144Z,1017.11
2023-04-09T01:59:28.143Z,1017.12
2023-04-09T02:00:28.144Z,1017.09
2023-04-09T02:01:28.172Z,1017.12
2023-04-09T02:02:28.206Z,1017.11
2023-04-09T02:03:28.216Z,1017.10
2023-04-09T02:04:28.109Z,1017.08
2023-04-09T02:05:28.097Z,1017.10
2023-04-09T02:06:28.061Z,1017.03
2023-04-09T02:07:28.040Z,1017.04
2023-04-09T02:08:28.062Z,1017.02
2023-04-09T02:09:28.035Z,1017.00
2023-04-09T02:10:28.034Z,1016.99
2023-04-09T02:11:28.068Z,1016.98
2023-04-09T02:12:27.986Z,1017.00
2023-04-09T02:13:27.984Z,1016.95
2023-04-09T02:14:27.976Z,1016.98
2023-04-09T02:15:27.976Z,1016.96
2023-04-09T02:16:27.956Z,1017.00
2023-04-09T02:17:27.991Z,1017.00
2023-04-09T02:18:27.939Z,1017.04
2023-04-09T02:19:27.948Z,1017.02
2023-04-09T02:20:27.933Z,1016.98
2023-04-09T02:21:27.890Z,1016.99
2023-04-09T02:22:27.903Z,1016.97
2023-04-09T02:23:27.864Z,1016.98
2023-04-09T02:24:27.901Z,1016.97
2023-04-09T02:25:27.869Z,1016.95
2023-04-09T02:26:27.840Z,1016.97
2023-04-09T02:27:27.833Z,1016.96
2023-04-09T02:28:27.843Z,1016.94
2023-04-09T02:29:27.860Z,1016.94
2023-04-09T02:30:27.802Z,1016.95
2023-04-09T02:31:27.815Z,1016.98
2023-04-09T02:32:27.812Z,1016.93
2023-04-09T02:33:27.777Z,1016.92
2023-04-09T02:34:27.789Z,1016.94
2023-04-09T02:35:27.755Z,1016.93
2023-04-09T02:36:27.742Z,1016.91
2023-04-09T02:37:27.725Z,1016.93
2023-04-09T02:38:27.717Z,1016.92
2023-04-09T02:39:27.697Z,1016.92
2023-04-09T02:40:27.705Z,1016.89
2023-04-09T02:41:27.669Z,1016.89
2023-04-09T02:42:27.690Z,1016.87
2023-04-09T02:43:27.663Z,1016.86
2023-04-09T02:44:27.672Z,1016.87
2023-04-09T02:45:27.653Z,1016.89
2023-04-09T02:46:27.677Z,1016.91
2023-04-09T02:47:27.658Z,1016.87
2023-04-09T02:48:27.609Z,1016.88
2023-04-09T02:49:27.592Z,1016.91
2023-04-09T02:50:29.476Z,1016.86
2023-04-09T02:51:27.577Z,1016.94
2023-04-09T02:52:27.567Z,1016.90
2023-04-09T02:53:27.553Z,1016.92
2023-04-09T02:54:27.529Z,1016.95
2023-04-09T02:55:27.530Z,1016.92
2023-04-09T02:56:27.554Z,1016.92
2023-04-09T02:57:27.513Z,1016.93
2023-04-09T02:58:27.500Z,1016.90
2023-04-09T02:59:27.487Z,1016.86
2023-04-09T03:00:27.465Z,1016.84
2023-04-09T03:01:27.475Z,1016.85
2023-04-09T03:02:27.580Z,1016.85
2023-04-09T03:03:27.512Z,1016.84
2023-04-09T03:04:27.436Z,1016.81
2023-04-09T03:05:27.404Z,1016.83
2023-04-09T03:06:27.404Z,1016.76
2023-04-09T03:07:27.411Z,1016.78
2023-04-09T03:08:27.411Z,1016.77
2023-04-09T03:09:27.383Z,1016.80
2023-04-09T03:10:27.360Z,1016.74
2023-04-09T03:11:27.395Z,1016.75
2023-04-09T03:12:27.369Z,1016.77
2023-04-09T03:13:27.318Z,1016.74
2023-04-09T03:14:27.306Z,1016.74
2023-04-09T03:15:27.315Z,1016.76
2023-04-09T03:16:27.327Z,1016.76
2023-04-09T03:17:27.397Z,1016.72
2023-04-09T03:18:27.277Z,1016.74
2023-04-09T03:19:27.255Z,1016.73
2023-04-09T03:20:27.244Z,1016.72
2023-04-09T03:21:27.246Z,1016.71
2023-04-09T03:22:27.256Z,1016.72
2023-04-09T03:23:27.210Z,1016.72
2023-04-09T03:24:27.212Z,1016.67
2023-04-09T03:25:27.224Z,1016.67
2023-04-09T03:26:27.213Z,1016.64
2023-04-09T03:27:27.178Z,1016.65
2023-04-09T03:28:27.192Z,1016.65
2023-04-09T03:29:27.162Z,1016.61
2023-04-09T03:30:27.147Z,1016.66
2023-04-09T03:31:27.155Z,1016.64
2023-04-09T03:32:27.152Z,1016.67
2023-04-09T03:33:27.103Z,1016.64
2023-04-09T03:34:27.103Z,1016.69
2023-04-09T03:35:27.122Z,1016.60
2023-04-09T03:36:27.082Z,1016.63
2023-04-09T03:37:27.065Z,1016.69
2023-04-09T03:38:27.084Z,1016.64
2023-04-09T03:39:27.029Z,1016.64
2023-04-09T03:40:27.028Z,1016.70
2023-04-09T03:41:27.031Z,1016.63
2023-04-09T03:42:27.022Z,1016.67
2023-04-09T03:43:26.998Z,1016.67
2023-04-09T03:44:27.021Z,1016.68
2023-04-09T03:45:26.984Z,1016.68
2023-04-09T03:46:27.013Z,1016.67
2023-04-09T03:47:26.992Z,1016.68
2023-04-09T03:48:26.956Z,1016.69
2023-04-09T03:49:26.961Z,1016.65
2023-04-09T03:50:26.912Z,1016.64
2023-04-09T03:51:26.923Z,1016.65
2023-04-09T03:52:26.896Z,1016.64
2023-04-09T03:53:26.900Z,1016.70
2023-04-09T03:54:26.867Z,1016.72
2023-04-09T03:55:26.915Z,1016.70
2023-04-09T03:56:26.854Z,1016.73
2023-04-09T03:57:26.847Z,1016.72
2023-04-09T03:58:26.834Z,1016.71
2023-04-09T03:59:26.858Z,1016.73
2023-04-09T04:00:26.842Z,1016.77
2023-04-09T04:01:26.786Z,1016.80
2023-04-09T04:02:27.067Z,1016.72
2023-04-09T04:03:26.882Z,1016.70
2023-04-09T04:04:26.851Z,1016.69
2023-04-09T04:05:26.793Z,1016.74
2023-04-09T04:06:26.747Z,1016.69
2023-04-09T04:07:26.728Z,1016.65
2023-04-09T04:08:26.726Z,1016.71
2023-04-09T04:09:26.727Z,1016.72
2023-04-09T04:10:26.704Z,1016.69
2023-04-09T04:11:26.723Z,1016.74
2023-04-09T04:12:26.667Z,1016.70
2023-04-09T04:13:26.710Z,1016.75
2023-04-09T04:14:26.654Z,1016.72
2023-04-09T04:15:26.663Z,1016.70
2023-04-09T04:16:26.676Z,1016.68
2023-04-09T04:17:26.651Z,1016.70
2023-04-09T04:18:26.609Z,1016.70
2023-04-09T04:19:26.606Z,1016.72
2023-04-09T04:20:26.586Z,1016.64
2023-04-09T04:21:26.579Z,1016.69
2023-04-09T04:22:26.549Z,1016.67
2023-04-09T04:23:26.612Z,1016.59
2023-04-09T04:24:26.534Z,1016.62
2023-04-09T04:25:26.558Z,1016.60
2023-04-09T04:26:26.522Z,1016.61
2023-04-09T04:27:26.518Z,1016.61
2023-04-09T04:28:26.501Z,1016.58
2023-04-09T04:29:26.483Z,1016.60
2023-04-09T04:30:26.487Z,1016.62
2023-04-09T04:31:26.500Z,1016.66
2023-04-09T04:32:26.484Z,1016.62
2023-04-09T04:33:26.453Z,1016.64
2023-04-09T04:34:26.439Z,1016.65
2023-04-09T04:35:26.485Z,1016.60
2023-04-09T04:36:26.393Z,1016.67
2023-04-09T04:37:26.405Z,1016.65
2023-04-09T04:38:26.391Z,1016.61
2023-04-09T04:39:26.372Z,1016.65
2023-04-09T04:40:26.364Z,1016.60
2023-04-09T04:41:26.346Z,1016.63
2023-04-09T04:42:26.370Z,1016.62
2023-04-09T04:43:26.325Z,1016.64
2023-04-09T04:44:26.324Z,1016.60
2023-04-09T04:45:26.377Z,1016.59
2023-04-09T04:46:26.290Z,1016.63
2023-04-09T04:47:26.367Z,1016.60
2023-04-09T04:48:26.312Z,1016.61
2023-04-09T04:49:26.287Z,1016.63
2023-04-09T04:50:26.258Z,1016.66
2023-04-09T04:51:26.239Z,1016.67
2023-04-09T04:52:26.244Z,1016.66
2023-04-09T04:53:26.245Z,1016.66
2023-04-09T04:54:26.246Z,1016.69
2023-04-09T04:55:26.207Z,1016.67
2023-04-09T04:56:26.214Z,1016.72
2023-04-09T04:57:26.204Z,1016.67
2023-04-09T04:58:26.152Z,1016.67
2023-04-09T04:59:26.169Z,1016.72
2023-04-09T05:00:26.166Z,1016.70
2023-04-09T05:01:26.160Z,1016.71
2023-04-09T05:02:26.294Z,1016.69
2023-04-09T05:03:27.630Z,1016.69
2023-04-09T05:04:26.135Z,1016.73
2023-04-09T05:05:26.081Z,1016.69
2023-04-09T05:06:26.082Z,1016.71
2023-04-09T05:07:26.108Z,1016.67
2023-04-09T05:08:26.073Z,1016.65
2023-04-09T05:09:26.047Z,1016.69
2023-04-09T05:10:26.022Z,1016.67
2023-04-09T05:11:26.027Z,1016.66
2023-04-09T05:12:26.003Z,1016.69
2023-04-09T05:13:26.010Z,1016.68
2023-04-09T05:14:25.993Z,1016.66
2023-04-09T05:15:26.003Z,1016.70
2023-04-09T05:16:26.020Z,1016.64
2023-04-09T05:17:26.041Z,1016.71
2023-04-09T05:18:25.953Z,1016.70
2023-04-09T05:19:25.924Z,1016.71
2023-04-09T05:20:25.935Z,1016.71
2023-04-09T05:21:25.943Z,1016.67
2023-04-09T05:22:25.903Z,1016.67
2023-04-09T05:23:25.881Z,1016.71
2023-04-09T05:24:25.866Z,1016.72
2023-04-09T05:25:25.874Z,1016.71
2023-04-09T05:26:25.855Z,1016.72
2023-04-09T05:27:25.845Z,1016.77
2023-04-09T05:28:25.846Z,1016.78
2023-04-09T05:29:25.816Z,1016.73
2023-04-09T05:30:25.906Z,1016.75
2023-04-09T05:31:25.811Z,1016.75
2023-04-09T05:32:25.886Z,1016.73
2023-04-09T05:33:25.776Z,1016.76
2023-04-09T05:34:25.765Z,1016.79
2023-04-09T05:35:25.774Z,1016.75
2023-04-09T05:36:25.760Z,1016.79
2023-04-09T05:37:25.777Z,1016.77
2023-04-09T05:38:25.774Z,1016.75
2023-04-09T05:39:25.716Z,1016.78
2023-04-09T05:40:25.711Z,1016.80
2023-04-09T05:41:25.683Z,1016.77
2023-04-09T05:42:25.672Z,1016.75
2023-04-09T05:43:25.697Z,1016.75
2023-04-09T05:44:25.668Z,1016.74
2023-04-09T05:45:25.648Z,1016.78
2023-04-09T05:46:25.683Z,1016.78
2023-04-09T05:47:25.697Z,1016.76
2023-04-09T05:48:25.613Z,1016.77
2023-04-09T05:49:25.627Z,1016.80
2023-04-09T05:50:25.608Z,1016.81
2023-04-09T05:51:25.588Z,1016.76
2023-04-09T05:52:25.607Z,1016.79
2023-04-09T05:53:25.555Z,1016.79
2023-04-09T05:54:25.587Z,1016.83
2023-04-09T05:55:25.576Z,1016.82
2023-04-09T05:56:25.544Z,1016.81
2023-04-09T05:57:25.525Z,1016.84
2023-04-09T05:58:25.524Z,1016.82
2023-04-09T05:59:25.485Z,1016.80
2023-04-09T06:00:25.497Z,1016.82
2023-04-09T06:01:25.476Z,1016.79
2023-04-09T06:02:25.655Z,1016.78
2023-04-09T06:03:25.533Z,1016.81
2023-04-09T06:04:25.507Z,1016.79
2023-04-09T06:05:25.436Z,1016.82
2023-04-09T06:06:25.419Z,1016.81
2023-04-09T06:07:25.410Z,1016.84
2023-04-09T06:08:25.431Z,1016.86
2023-04-09T06:09:25.404Z,1016.85
2023-04-09T06:10:25.399Z,1016.87
2023-04-09T06:11:25.370Z,1016.84
2023-04-09T06:12:25.351Z,1016.85
2023-04-09T06:13:25.350Z,1016.85
2023-04-09T06:14:25.339Z,1016.82
2023-04-09T06:15:25.320Z,1016.86
2023-04-09T06:16:25.310Z,1016.85
2023-04-09T06:17:25.319Z,1016.84
2023-04-09T06:18:25.304Z,1016.84
2023-04-09T06:19:25.281Z,1016.85
2023-04-09T06:20:25.253Z,1016.80
2023-04-09T06:21:25.259Z,1016.86
2023-04-09T06:22:25.235Z,1016.83
2023-04-09T06:23:25.217Z,1016.91
2023-04-09T06:24:25.233Z,1016.86
2023-04-09T06:25:25.211Z,1016.82
2023-04-09T06:26:25.200Z,1016.84
2023-04-09T06:27:25.272Z,1016.87
2023-04-09T06:28:25.187Z,1016.83
2023-04-09T06:29:25.164Z,1016.83
2023-04-09T06:30:25.138Z,1016.80
2023-04-09T06:31:25.184Z,1016.85
2023-04-09T06:32:25.160Z,1016.84
2023-04-09T06:33:25.208Z,1016.88
2023-04-09T06:34:25.110Z,1016.82
2023-04-09T06:35:25.117Z,1016.85
2023-04-09T06:36:25.102Z,1016.85
2023-04-09T06:37:25.073Z,1016.85
2023-04-09T06:38:25.062Z,1016.85
2023-04-09T06:39:25.054Z,1016.86
2023-04-09T06:40:25.074Z,1016.84
2023-04-09T06:41:25.037Z,1016.86
2023-04-09T06:42:25.008Z,1016.81
2023-04-09T06:43:24.994Z,1016.85
2023-04-09T06:44:25.041Z,1016.84
2023-04-09T06:45:24.977Z,1016.86
2023-04-09T06:46:24.997Z,1016.86
2023-04-09T06:47:24.971Z,1016.87
2023-04-09T06:48:24.964Z,1016.90
2023-04-09T06:49:24.924Z,1016.88
2023-04-09T06:50:24.965Z,1016.90
2023-04-09T06:51:24.984Z,1016.91
2023-04-09T06:52:24.893Z,1016.94
2023-04-09T06:53:24.940Z,1016.93
2023-04-09T06:54:25.012Z,1016.92
2023-04-09T06:55:24.877Z,1016.96
2023-04-09T06:56:24.890Z,1016.94
2023-04-09T06:57:24.849Z,1016.92
2023-04-09T06:58:24.842Z,1016.91
2023-04-09T06:59:24.849Z,1016.92
2023-04-09T07:00:24.808Z,1016.88
2023-04-09T07:01:24.828Z,1016.92
2023-04-09T07:02:24.975Z,1016.89
2023-04-09T07:03:25.010Z,1016.88
2023-04-09T07:04:24.873Z,1016.91
2023-04-09T07:05:24.761Z,1016.86
2023-04-09T07:06:24.757Z,1016.83
2023-04-09T07:08:25.721Z,1016.83
2023-04-09T07:09:24.764Z,1016.85
2023-04-09T07:10:24.716Z,1016.80
2023-04-09T07:11:24.686Z,1016.88
2023-04-09T07:12:24.703Z,1016.84
2023-04-09T07:13:24.681Z,1016.87
2023-04-09T07:14:24.661Z,1016.87
2023-04-09T07:15:24.639Z,1016.89
2023-04-09T07:16:24.711Z,1016.88
2023-04-09T07:17:24.653Z,1016.95
2023-04-09T07:18:24.637Z,1016.90
2023-04-09T07:19:24.624Z,1016.94
2023-04-09T07:20:24.611Z,1016.92
2023-04-09T07:21:24.571Z,1016.95
2023-04-09T07:22:24.578Z,1017.01
2023-04-09T07:23:24.567Z,1016.94
2023-04-09T07:24:24.550Z,1016.94
2023-04-09T07:25:24.897Z,1016.98
2023-04-09T07:26:24.547Z,1016.99
2023-04-09T07:27:24.559Z,1016.96
2023-04-09T07:28:24.540Z,1016.98
2023-04-09T07:29:24.483Z,1016.99
2023-04-09T07:30:24.499Z,1017.04
2023-04-09T07:31:24.494Z,1017.02
2023-04-09T07:32:24.491Z,1016.98
2023-04-09T07:33:24.455Z,1017.05
2023-04-09T07:34:24.450Z,1017.06
2023-04-09T07:35:24.462Z,1017.06
2023-04-09T07:36:24.476Z,1017.02
2023-04-09T07:37:24.417Z,1017.03
2023-04-09T07:38:24.396Z,1017.04
2023-04-09T07:39:24.446Z,1017.04
2023-04-09T07:40:24.445Z,1017.00
2023-04-09T07:41:24.355Z,1017.04
2023-04-09T07:42:24.347Z,1017.04
2023-04-09T07:43:24.346Z,1017.02
2023-04-09T07:44:24.345Z,1017.05
2023-04-09T07:45:24.332Z,1016.96
2023-04-09T07:46:24.450Z,1016.99
2023-04-09T07:47:24.407Z,1017.01
2023-04-09T07:48:24.272Z,1017.04
2023-04-09T07:49:24.281Z,1017.02
2023-04-09T07:50:24.254Z,1017.03
2023-04-09T07:51:24.245Z,1017.00
2023-04-09T07:52:24.244Z,1017.04
2023-04-09T07:53:24.216Z,1017.04
2023-04-09T07:54:24.212Z,1017.02
2023-04-09T07:55:24.218Z,1017.05
2023-04-09T07:56:24.189Z,1017.06
2023-04-09T07:57:24.169Z,1017.05
2023-04-09T07:58:24.191Z,1017.05
2023-04-09T07:59:24.165Z,1017.05
2023-04-09T08:00:24.194Z,1017.07
2023-04-09T08:01:24.139Z,1017.08
2023-04-09T08:02:24.288Z,1017.05
2023-04-09T08:03:24.267Z,1017.10
2023-04-09T08:04:24.244Z,1017.11
2023-04-09T08:05:24.094Z,1017.09
2023-04-09T08:06:24.083Z,1017.09
2023-04-09T08:07:24.075Z,1017.12
2023-04-09T08:08:24.057Z,1017.09
2023-04-09T08:09:24.055Z,1017.11
2023-04-09T08:10:24.020Z,1017.13
2023-04-09T08:11:24.041Z,1017.12
2023-04-09T08:12:24.019Z,1017.04
2023-04-09T08:13:24.006Z,1017.01
2023-04-09T08:14:23.991Z,1017.04
2023-04-09T08:15:23.990Z,1017.07
2023-04-09T08:16:24.053Z,1017.03
2023-04-09T08:17:23.989Z,1017.04
2023-04-09T08:18:23.962Z,1017.04
2023-04-09T08:19:23.942Z,1017.01
2023-04-09T08:20:23.954Z,1016.97
2023-04-09T08:21:23.913Z,1017.00
2023-04-09T08:22:23.891Z,1017.05
2023-04-09T08:23:23.879Z,1017.04
2023-04-09T08:24:23.869Z,1017.03
2023-04-09T08:25:23.885Z,1017.04
2023-04-09T08:26:23.872Z,1017.03
2023-04-09T08:27:23.854Z,1017.00
2023-04-09T08:28:23.844Z,1017.02
2023-04-09T08:29:23.847Z,1017.05
2023-04-09T08:30:23.837Z,1017.03
2023-04-09T08:31:23.820Z,1017.05
2023-04-09T08:32:23.890Z,1017.07
2023-04-09T08:33:23.792Z,1017.05
2023-04-09T08:34:23.770Z,1017.04
2023-04-09T08:35:23.762Z,1017.07
2023-04-09T08:36:23.784Z,1017.01
2023-04-09T08:37:23.743Z,1017.01
2023-04-09T08:38:23.758Z,1017.05
2023-04-09T08:39:23.700Z,1017.06
2023-04-09T08:40:23.697Z,1017.02
2023-04-09T08:41:23.682Z,1017.04
2023-04-09T08:42:23.677Z,1017.03
2023-04-09T08:43:25.122Z,1017.04
2023-04-09T08:44:24.658Z,1017.05
2023-04-09T08:45:23.629Z,1017.05
2023-04-09T08:46:23.728Z,1017.06
2023-04-09T08:47:23.724Z,1017.04
2023-04-09T08:48:23.712Z,1017.01
2023-04-09T08:49:23.599Z,1017.05
2023-04-09T08:50:23.576Z,1017.04
2023-04-09T08:51:23.722Z,1016.99
2023-04-09T08:52:23.574Z,1017.02
2023-04-09T08:53:23.563Z,1017.01
2023-04-09T08:54:23.529Z,1016.97
2023-04-09T08:55:23.534Z,1016.99
2023-04-09T08:56:23.508Z,1017.01
2023-04-09T08:57:23.528Z,1016.95
2023-04-09T08:58:23.521Z,1016.97
2023-04-09T08:59:23.494Z,1017.02
2023-04-09T09:00:23.473Z,1016.92
2023-04-09T09:01:23.534Z,1016.95
2023-04-09T09:02:23.604Z,1016.99
2023-04-09T09:03:23.533Z,1016.99
2023-04-09T09:04:23.631Z,1017.01
2023-04-09T09:05:23.404Z,1016.98
2023-04-09T09:06:23.400Z,1016.97
2023-04-09T09:07:23.398Z,1016.98
2023-04-09T09:08:23.403Z,1016.97
2023-04-09T09:09:23.379Z,1016.98
2023-04-09T09:10:23.344Z,1016.96
2023-04-09T09:11:23.336Z,1017.00
2023-04-09T09:12:24.098Z,1016.97
2023-04-09T09:13:23.340Z,1016.99
2023-04-09T09:14:23.322Z,1017.05
2023-04-09T09:15:23.296Z,1016.96
2023-04-09T09:16:23.365Z,1016.98
2023-04-09T09:17:23.378Z,1016.98
2023-04-09T09:18:23.264Z,1016.94
2023-04-09T09:19:23.247Z,1016.93
2023-04-09T09:20:23.262Z,1016.96
2023-04-09T09:21:23.225Z,1016.98
2023-04-09T09:22:23.223Z,1016.95
2023-04-09T09:23:23.199Z,1016.93
2023-04-09T09:24:23.198Z,1016.88
2023-04-09T09:25:23.212Z,1016.96
2023-04-09T09:26:23.191Z,1016.94
2023-04-09T09:27:23.192Z,1016.97
2023-04-09T09:28:23.168Z,1016.95
2023-04-09T09:29:23.142Z,1016.91
2023-04-09T09:30:23.155Z,1016.97
2023-04-09T09:31:23.251Z,1016.93
2023-04-09T09:32:23.136Z,1016.87
2023-04-09T09:33:23.144Z,1016.93
2023-04-09T09:34:23.089Z,1016.87
2023-04-09T09:35:23.084Z,1016.81
2023-04-09T09:36:23.090Z,1016.78
2023-04-09T09:37:23.060Z,1016.83
2023-04-09T09:38:23.125Z,1016.83
2023-04-09T09:39:23.014Z,1016.82
2023-04-09T09:40:23.024Z,1016.84
2023-04-09T09:41:23.020Z,1016.83
2023-04-09T09:42:22.981Z,1016.76
2023-04-09T09:43:22.979Z,1016.78
2023-04-09T09:44:22.984Z,1016.72
2023-04-09T09:45:22.951Z,1016.79
2023-04-09T09:46:22.952Z,1016.73
2023-04-09T09:47:23.021Z,1016.74
2023-04-09T09:48:22.915Z,1016.72
2023-04-09T09:49:22.940Z,1016.69
2023-04-09T09:50:22.912Z,1016.68
2023-04-09T09:51:22.895Z,1016.65
2023-04-09T09:52:22.960Z,1016.66
2023-04-09T09:53:22.868Z,1016.72
2023-04-09T09:54:22.867Z,1016.74
2023-04-09T09:55:22.876Z,1016.72
2023-04-09T09:56:22.865Z,1016.70
2023-04-09T09:57:22.821Z,1016.63
2023-04-09T09:58:22.823Z,1016.64
2023-04-09T09:59:22.831Z,1016.60
2023-04-09T10:00:23.893Z,1016.61
2023-04-09T10:01:22.810Z,1016.60
2023-04-09T10:02:22.966Z,1016.61
2023-04-09T10:03:22.931Z,1016.56
2023-04-09T10:04:22.877Z,1016.57
2023-04-09T10:05:22.755Z,1016.59
2023-04-09T10:06:22.715Z,1016.57
2023-04-09T10:07:22.751Z,1016.53
2023-04-09T10:08:22.720Z,1016.52
2023-04-09T10:09:22.684Z,1016.52
2023-04-09T10:10:22.679Z,1016.49
2023-04-09T10:11:22.665Z,1016.52
2023-04-09T10:12:22.673Z,1016.51
2023-04-09T10:13:22.648Z,1016.55
2023-04-09T10:14:22.617Z,1016.49
2023-04-09T10:15:22.613Z,1016.50
2023-04-09T10:16:22.746Z,1016.52
2023-04-09T10:17:22.626Z,1016.45
2023-04-09T10:18:22.595Z,1016.51
2023-04-09T10:19:22.571Z,1016.49
2023-04-09T10:20:22.559Z,1016.49
2023-04-09T10:21:22.548Z,1016.49
2023-04-09T10:22:22.537Z,1016.46
2023-04-09T10:23:22.510Z,1016.46
2023-04-09T10:24:22.538Z,1016.46
2023-04-09T10:25:22.503Z,1016.44
2023-04-09T10:26:22.496Z,1016.41
2023-04-09T10:27:22.479Z,1016.44
2023-04-09T10:28:22.506Z,1016.41
2023-04-09T10:29:22.462Z,1016.41
2023-04-09T10:30:22.461Z,1016.40
2023-04-09T10:31:22.500Z,1016.37
2023-04-09T10:32:22.475Z,1016.44
2023-04-09T10:33:22.395Z,1016.38
2023-04-09T10:34:22.422Z,1016.45
2023-04-09T10:35:22.395Z,1016.40
2023-04-09T10:36:22.427Z,1016.41
2023-04-09T10:37:22.376Z,1016.37
2023-04-09T10:38:22.358Z,1016.41
2023-04-09T10:39:22.348Z,1016.41
2023-04-09T10:40:22.362Z,1016.40
2023-04-09T10:41:22.343Z,1016.41
2023-04-09T10:42:22.328Z,1016.34
2023-04-09T10:43:22.313Z,1016.41
2023-04-09T10:44:22.277Z,1016.39
2023-04-09T10:45:22.580Z,1016.38
2023-04-09T10:46:22.308Z,1016.33
2023-04-09T10:47:22.272Z,1016.36
2023-04-09T10:48:22.397Z,1016.36
2023-04-09T10:49:22.258Z,1016.30
2023-04-09T10:50:22.217Z,1016.36
2023-04-09T10:51:22.203Z,1016.28
2023-04-09T10:52:22.191Z,1016.32
2023-04-09T10:53:22.195Z,1016.33
2023-04-09T10:54:22.168Z,1016.25
2023-04-09T10:55:22.179Z,1016.32
2023-04-09T10:56:22.203Z,1016.32
2023-04-09T10:57:22.161Z,1016.32
2023-04-09T10:58:22.149Z,1016.31
2023-04-09T10:59:22.113Z,1016.30
2023-04-09T11:00:22.109Z,1016.32
2023-04-09T11:01:22.111Z,1016.28
2023-04-09T11:02:22.164Z,1016.26
2023-04-09T11:03:22.256Z,1016.26
2023-04-09T11:04:22.092Z,1016.32
2023-04-09T11:05:22.059Z,1016.21
2023-04-09T11:06:22.077Z,1016.30
2023-04-09T11:07:22.053Z,1016.28
2023-04-09T11:08:22.024Z,1016.24
2023-04-09T11:09:22.002Z,1016.23
2023-04-09T11:10:21.997Z,1016.25
2023-04-09T11:11:21.988Z,1016.17
2023-04-09T11:12:22.008Z,1016.16
2023-04-09T11:13:22.029Z,1016.17
2023-04-09T11:14:21.958Z,1016.15
2023-04-09T11:15:21.945Z,1016.14
2023-04-09T11:16:22.923Z,1016.13
2023-04-09T11:17:21.945Z,1016.03
2023-04-09T11:18:21.897Z,1016.11
2023-04-09T11:19:21.916Z,1016.12
2023-04-09T11:20:21.871Z,1016.07
2023-04-09T11:21:21.873Z,1016.13
2023-04-09T11:22:21.850Z,1016.09
2023-04-09T11:23:21.860Z,1016.10
2023-04-09T11:24:21.824Z,1015.99
2023-04-09T11:25:21.827Z,1016.00
2023-04-09T11:26:21.837Z,1016.06
2023-04-09T11:27:21.815Z,1016.08
2023-04-09T11:28:21.825Z,1016.01
2023-04-09T11:29:21.779Z,1016.03
2023-04-09T11:30:21.771Z,1016.04
2023-04-09T11:31:21.823Z,1015.98
2023-04-09T11:32:21.757Z,1016.02
2023-04-09T11:33:21.753Z,1016.05
2023-04-09T11:34:21.720Z,1016.01
2023-04-09T11:35:21.716Z,1015.99
2023-04-09T11:36:21.722Z,1015.93
2023-04-09T11:37:21.694Z,1015.99
2023-04-09T11:38:21.669Z,1015.92
2023-04-09T11:39:21.677Z,1015.94
2023-04-09T11:40:21.655Z,1016.00
2023-04-09T11:41:21.635Z,1015.99
2023-04-09T11:42:21.630Z,1015.90
2023-04-09T11:43:21.628Z,1015.91
2023-04-09T11:44:21.653Z,1015.86
2023-04-09T11:45:21.629Z,1015.92
2023-04-09T11:46:21.598Z,1015.94
2023-04-09T11:47:21.598Z,1015.97
2023-04-09T11:48:21.572Z,1015.91
2023-04-09T11:49:21.561Z,1015.89
2023-04-09T11:50:21.539Z,1015.93
2023-04-09T11:51:21.538Z,1015.85
2023-04-09T11:52:21.516Z,1015.98
2023-04-09T11:53:21.566Z,1015.96
2023-04-09T11:54:21.514Z,1015.88
2023-04-09T11:55:21.480Z,1015.84
2023-04-09T11:56:21.484Z,1015.94
2023-04-09T11:57:21.457Z,1015.86
2023-04-09T11:58:21.451Z,1015.88
2023-04-09T11:59:21.470Z,1015.91
2023-04-09T12:00:21.456Z,1015.86
2023-04-09T12:01:21.436Z,1015.87
2023-04-09T12:02:21.504Z,1015.85
2023-04-09T12:03:21.576Z,1015.86
2023-04-09T12:04:21.481Z,1015.83
2023-04-09T12:05:21.377Z,1015.86
2023-04-09T12:06:21.358Z,1015.84